Aurora, New York
Current Conditions -  °F | °C
As of 7:53 PM on Tuesday 25 Nov 2014 (Local Time) from KPEO Reporting Station
Overcast Overcast  
Wind Chill: 33°   Ceiling: 5000
Heat Index: 41°   Visibility: 10mi
Dew Point: 27°   Wind: 14mph
Humidity: 57%   Direction: 270°W
Pressure: 30.09"   Gusts: 20mph
Location:  42.75°N, 76.7°W
Report Text: KPEO 260053Z AUTO 27012G17KT 10SM OVC050 05/M03 A3009 RMK AO2 SLP197 T00501028
Loading
Personal Weather Stations






























Interactive Weather Map New forecast layout! Learn more

10-Day Weather Forecast

Advertisements
Track Severe Weather on mobile